N6529L PASC-PAQT

Flight info

Callsign N6529L
Flight time 0h 39m
Altitude 2000
Route DIRECT
Aircraft PA24/L-VGD/C

Departure

Time 2026-04-28 19:05
Airport Deadhorse Airport (PASC)

Arrival

Time 2026-04-28 19:44
Airport Nuiqsut Airport (PAQT)
Time Latitude Longitude Altitude Speed Heading
2026-04-28 18:46 70.19769 -148.46713 67 ft 0 kts 161°
2026-04-28 18:54 70.19769 -148.46712 67 ft 0 kts 161°
2026-04-28 18:56 70.19760 -148.46703 66 ft 6 kts 153°
2026-04-28 18:56 70.19718 -148.46522 67 ft 12 kts 143°
2026-04-28 18:57 70.19637 -148.46619 65 ft 20 kts 244°
2026-04-28 18:57 70.19588 -148.47135 66 ft 32 kts 255°
2026-04-28 18:57 70.19529 -148.47771 67 ft 32 kts 254°
2026-04-28 18:57 70.19487 -148.48238 67 ft 21 kts 255°
2026-04-28 18:58 70.19464 -148.48481 67 ft 13 kts 254°
2026-04-28 18:58 70.19439 -148.48761 68 ft 15 kts 255°
2026-04-28 18:58 70.19424 -148.48985 69 ft 8 kts 267°
2026-04-28 18:58 70.19422 -148.49032 68 ft 1 kts 228°
2026-04-28 19:00 70.19416 -148.49089 68 ft 8 kts 241°
2026-04-28 19:00 70.19406 -148.49107 67 ft 1 kts 172°
2026-04-28 19:00 70.19372 -148.49089 68 ft 6 kts 175°
2026-04-28 19:01 70.19363 -148.49087 65 ft 0 kts 169°
2026-04-28 19:02 70.19361 -148.49085 67 ft 3 kts 169°
2026-04-28 19:02 70.19338 -148.49069 64 ft 2 kts 163°
2026-04-28 19:02 70.19334 -148.49065 67 ft 0 kts 162°
2026-04-28 19:03 70.19331 -148.49062 66 ft 3 kts 162°
2026-04-28 19:04 70.19280 -148.48974 66 ft 14 kts 124°
2026-04-28 19:04 70.19287 -148.48584 71 ft 39 kts 75°
2026-04-28 19:04 70.19392 -148.47372 105 ft 76 kts 69°
2026-04-28 19:04 70.19506 -148.45777 401 ft 74 kts 75°
2026-04-28 19:05 70.19612 -148.44337 621 ft 79 kts 74°
2026-04-28 19:05 70.19706 -148.42731 909 ft 73 kts 69°
2026-04-28 19:05 70.20090 -148.41685 1063 ft 92 kts 27°
2026-04-28 19:05 70.20747 -148.42016 1302 ft 103 kts 348°
2026-04-28 19:06 70.21282 -148.43699 1367 ft 127 kts 307°
2026-04-28 19:06 70.21485 -148.45335 1550 ft 127 kts 284°
2026-04-28 19:06 70.21395 -148.48894 1776 ft 138 kts 259°
2026-04-28 19:06 70.21233 -148.51755 1815 ft 149 kts 257°
2026-04-28 19:07 70.21036 -148.54773 1933 ft 149 kts 252°
2026-04-28 19:07 70.20814 -148.57834 1925 ft 156 kts 255°
2026-04-28 19:07 70.20627 -148.60999 1972 ft 160 kts 253°
2026-04-28 19:07 70.20425 -148.64250 1990 ft 163 kts 258°
2026-04-28 19:08 70.20219 -148.67560 1984 ft 165 kts 257°
2026-04-28 19:08 70.20243 -148.70961 1981 ft 167 kts 274°
2026-04-28 19:08 70.20389 -148.74331 1981 ft 168 kts 283°
2026-04-28 19:08 70.20581 -148.77744 1978 ft 169 kts 276°
2026-04-28 19:09 70.20700 -148.81210 1966 ft 170 kts 275°
2026-04-28 19:09 70.20746 -148.83505 1991 ft 168 kts 274°
2026-04-28 19:09 70.20776 -148.88064 1983 ft 168 kts 273°
2026-04-28 19:09 70.20858 -148.91511 1974 ft 168 kts 273°
2026-04-28 19:10 70.20869 -148.94973 1973 ft 168 kts 270°
2026-04-28 19:10 70.20859 -148.97270 1971 ft 168 kts 269°
2026-04-28 19:10 70.20777 -149.00721 1972 ft 169 kts 264°
2026-04-28 19:10 70.20642 -149.04170 1972 ft 169 kts 262°
2026-04-28 19:11 70.20553 -149.07623 1976 ft 169 kts 265°
2026-04-28 19:11 70.20489 -149.11089 1991 ft 169 kts 266°
2026-04-28 19:11 70.20471 -149.14546 1991 ft 168 kts 271°
2026-04-28 19:11 70.20478 -149.17998 1993 ft 169 kts 268°
2026-04-28 19:12 70.20560 -149.21402 1993 ft 169 kts 279°
2026-04-28 19:12 70.20672 -149.24845 1993 ft 169 kts 271°
2026-04-28 19:12 70.20697 -149.28311 1994 ft 169 kts 269°
2026-04-28 19:12 70.20662 -149.31780 1994 ft 169 kts 269°
2026-04-28 19:13 70.20580 -149.35224 1993 ft 168 kts 265°
2026-04-28 19:13 70.20481 -149.38661 1993 ft 167 kts 265°
2026-04-28 19:13 70.20395 -149.42044 1996 ft 167 kts 264°
2026-04-28 19:13 70.20346 -149.45463 1992 ft 167 kts 266°
2026-04-28 19:14 70.20288 -149.48865 1992 ft 165 kts 264°
2026-04-28 19:14 70.20134 -149.52175 1997 ft 164 kts 263°
2026-04-28 19:14 70.20006 -149.55493 1993 ft 162 kts 260°
2026-04-28 19:14 70.19865 -149.58794 1991 ft 162 kts 264°
2026-04-28 19:15 70.19777 -149.62101 1991 ft 161 kts 264°
2026-04-28 19:15 70.19697 -149.65408 1994 ft 162 kts 266°
2026-04-28 19:15 70.19649 -149.68667 1995 ft 161 kts 264°
2026-04-28 19:15 70.19566 -149.70872 1994 ft 160 kts 261°
2026-04-28 19:16 70.19447 -149.75206 1979 ft 158 kts 267°
2026-04-28 19:16 70.19451 -149.78440 1982 ft 157 kts 266°
2026-04-28 19:16 70.19392 -149.81627 1984 ft 155 kts 267°
2026-04-28 19:16 70.19314 -149.84779 1989 ft 153 kts 263°
2026-04-28 19:17 70.19222 -149.87860 1991 ft 152 kts 262°
2026-04-28 19:17 70.19117 -149.90959 1994 ft 152 kts 261°
2026-04-28 19:17 70.19048 -149.94061 1994 ft 151 kts 266°
2026-04-28 19:17 70.18988 -149.97156 1994 ft 151 kts 266°
2026-04-28 19:18 70.18947 -150.00269 1996 ft 151 kts 266°
2026-04-28 19:18 70.18863 -150.03344 1996 ft 150 kts 261°
2026-04-28 19:18 70.18706 -150.06353 1993 ft 150 kts 261°
2026-04-28 19:18 70.18604 -150.09450 1999 ft 151 kts 264°
2026-04-28 19:19 70.18542 -150.12575 1998 ft 154 kts 265°
2026-04-28 19:19 70.18487 -150.15697 1999 ft 154 kts 266°
2026-04-28 19:19 70.18440 -150.18863 1995 ft 155 kts 267°
2026-04-28 19:19 70.18377 -150.22033 1997 ft 154 kts 266°
2026-04-28 19:20 70.18300 -150.25184 2004 ft 154 kts 265°
2026-04-28 19:20 70.18191 -150.28339 2005 ft 155 kts 263°
2026-04-28 19:20 70.18047 -150.31479 2007 ft 154 kts 259°
2026-04-28 19:20 70.17891 -150.34603 2005 ft 154 kts 261°
2026-04-28 19:21 70.17790 -150.37728 2007 ft 155 kts 263°
2026-04-28 19:21 70.17746 -150.40913 2011 ft 155 kts 268°
2026-04-28 19:21 70.17716 -150.44108 2009 ft 156 kts 266°
2026-04-28 19:21 70.17619 -150.47281 2012 ft 155 kts 262°
2026-04-28 19:22 70.17527 -150.50437 2011 ft 154 kts 265°
2026-04-28 19:22 70.17487 -150.52529 2013 ft 155 kts 264°
2026-04-28 19:22 70.17343 -150.56714 2015 ft 155 kts 263°
2026-04-28 19:22 70.17265 -150.59895 2010 ft 155 kts 265°
2026-04-28 19:23 70.17178 -150.63070 2013 ft 155 kts 262°
2026-04-28 19:23 70.17058 -150.66234 2013 ft 155 kts 263°
2026-04-28 19:23 70.16994 -150.69362 2010 ft 154 kts 267°
2026-04-28 19:23 70.16918 -150.72522 2012 ft 154 kts 265°
2026-04-28 19:24 70.16819 -150.75663 2014 ft 154 kts 262°
2026-04-28 19:24 70.16687 -150.78804 2016 ft 154 kts 263°
2026-04-28 19:24 70.16580 -150.81943 2013 ft 154 kts 264°
2026-04-28 19:24 70.16470 -150.85071 2015 ft 154 kts 264°
2026-04-28 19:25 70.16353 -150.88171 2015 ft 154 kts 262°
2026-04-28 19:25 70.16284 -150.91316 2013 ft 154 kts 266°
2026-04-28 19:25 70.16216 -150.94471 2011 ft 155 kts 264°
2026-04-28 19:25 70.16127 -150.97598 2017 ft 155 kts 264°
2026-04-28 19:26 70.16005 -151.00757 2014 ft 155 kts 262°
2026-04-28 19:26 70.15903 -151.03917 2018 ft 154 kts 266°
2026-04-28 19:26 70.15852 -151.07069 2016 ft 154 kts 267°
2026-04-28 19:26 70.15782 -151.10219 2015 ft 154 kts 264°
2026-04-28 19:27 70.15673 -151.13326 2014 ft 155 kts 262°
2026-04-28 19:27 70.15532 -151.16462 2014 ft 154 kts 261°
2026-04-28 19:27 70.15398 -151.19615 2014 ft 154 kts 263°
2026-04-28 19:27 70.15296 -151.22769 2015 ft 154 kts 263°
2026-04-28 19:28 70.15170 -151.25865 2015 ft 154 kts 262°
2026-04-28 19:28 70.15073 -151.29009 2013 ft 154 kts 264°
2026-04-28 19:28 70.14962 -151.32153 2014 ft 154 kts 263°
2026-04-28 19:28 70.14846 -151.35328 2013 ft 155 kts 262°
2026-04-28 19:29 70.14712 -151.38437 2012 ft 155 kts 261°
2026-04-28 19:29 70.14613 -151.40551 2011 ft 154 kts 262°
2026-04-28 19:29 70.14434 -151.44694 2011 ft 155 kts 260°
2026-04-28 19:29 70.14295 -151.47847 2011 ft 155 kts 262°
2026-04-28 19:30 70.14166 -151.50951 2011 ft 154 kts 261°
2026-04-28 19:30 70.14023 -151.54060 2010 ft 153 kts 261°
2026-04-28 19:30 70.13806 -151.57123 2010 ft 153 kts 245°
2026-04-28 19:30 70.13337 -151.59923 2012 ft 151 kts 241°
2026-04-28 19:31 70.12894 -151.62729 2010 ft 151 kts 240°
2026-04-28 19:31 70.12449 -151.65520 2008 ft 150 kts 241°
2026-04-28 19:31 70.11992 -151.68279 2010 ft 150 kts 242°
2026-04-28 19:31 70.11659 -151.71185 2005 ft 151 kts 250°
2026-04-28 19:32 70.11099 -151.73661 1970 ft 150 kts 199°
2026-04-28 19:32 70.10247 -151.73029 2093 ft 120 kts 121°
2026-04-28 19:32 70.10234 -151.70846 2039 ft 117 kts 56°
2026-04-28 19:32 70.10927 -151.69822 2200 ft 110 kts 18°
2026-04-28 19:33 70.11719 -151.69654 2096 ft 123 kts 20°
2026-04-28 19:33 70.12339 -151.68071 1976 ft 113 kts 61°
2026-04-28 19:33 70.12739 -151.66453 2025 ft 93 kts 62°
2026-04-28 19:33 70.13071 -151.64809 1879 ft 90 kts 70°
2026-04-28 19:34 70.13295 -151.63123 1752 ft 88 kts 75°
2026-04-28 19:34 70.13512 -151.61477 1708 ft 85 kts 73°
2026-04-28 19:34 70.13669 -151.59828 1669 ft 84 kts 77°
2026-04-28 19:34 70.13934 -151.58299 1627 ft 86 kts 55°
2026-04-28 19:35 70.14115 -151.56708 1664 ft 80 kts 92°
2026-04-28 19:35 70.14286 -151.55204 1665 ft 83 kts 69°
2026-04-28 19:35 70.14515 -151.53593 1674 ft 83 kts 75°
2026-04-28 19:35 70.14666 -151.51982 1716 ft 82 kts 76°
2026-04-28 19:36 70.14808 -151.50362 1768 ft 82 kts 81°
2026-04-28 19:36 70.14942 -151.48746 1809 ft 83 kts 73°
2026-04-28 19:36 70.15140 -151.47141 1829 ft 83 kts 72°
2026-04-28 19:36 70.15400 -151.45598 1834 ft 84 kts 69°
2026-04-28 19:37 70.15561 -151.43945 1812 ft 84 kts 79°
2026-04-28 19:37 70.15697 -151.42873 1800 ft 84 kts 69°
2026-04-28 19:37 70.15962 -151.40722 1764 ft 84 kts 78°
2026-04-28 19:37 70.16126 -151.39080 1747 ft 83 kts 74°
2026-04-28 19:38 70.16303 -151.37450 1725 ft 83 kts 76°
2026-04-28 19:38 70.16488 -151.35861 1727 ft 83 kts 72°
2026-04-28 19:38 70.16693 -151.34266 1711 ft 83 kts 71°
2026-04-28 19:38 70.16901 -151.32676 1702 ft 83 kts 71°
2026-04-28 19:39 70.17127 -151.31101 1689 ft 84 kts 70°
2026-04-28 19:39 70.17334 -151.29538 1727 ft 82 kts 76°
2026-04-28 19:39 70.17509 -151.27930 1736 ft 84 kts 70°
2026-04-28 19:39 70.17761 -151.26384 1759 ft 83 kts 68°
2026-04-28 19:40 70.17982 -151.24790 1755 ft 82 kts 75°
2026-04-28 19:40 70.18097 -151.23158 1713 ft 81 kts 81°
2026-04-28 19:40 70.18275 -151.21569 1588 ft 83 kts 67°
2026-04-28 19:40 70.18547 -151.20028 1449 ft 86 kts 67°
2026-04-28 19:41 70.18816 -151.18501 1291 ft 82 kts 72°
2026-04-28 19:41 70.18973 -151.16942 1143 ft 78 kts 78°
2026-04-28 19:41 70.19081 -151.15463 1028 ft 70 kts 73°
2026-04-28 19:41 70.19254 -151.14097 893 ft 71 kts 66°
2026-04-28 19:42 70.19451 -151.12813 832 ft 65 kts 65°
2026-04-28 19:42 70.19617 -151.11661 836 ft 60 kts 68°
2026-04-28 19:42 70.19761 -151.10493 782 ft 62 kts 69°
2026-04-28 19:42 70.19841 -151.09675 720 ft 63 kts 68°
2026-04-28 19:43 70.20043 -151.08046 558 ft 63 kts 65°
2026-04-28 19:43 70.20185 -151.06827 417 ft 63 kts 66°
2026-04-28 19:43 70.20340 -151.05614 305 ft 64 kts 62°
2026-04-28 19:43 70.20506 -151.04384 255 ft 63 kts 61°
2026-04-28 19:44 70.20662 -151.03152 207 ft 64 kts 62°
2026-04-28 19:44 70.20814 -151.01968 123 ft 61 kts 62°
2026-04-28 19:44 70.20941 -151.00910 56 ft 46 kts 62°
2026-04-28 19:44 70.21045 -151.00172 42 ft 26 kts 63°
2026-04-28 19:45 70.21076 -150.99936 44 ft 15 kts 68°
2026-04-28 19:45 70.21124 -150.99599 40 ft 18 kts 65°
2026-04-28 19:45 70.21183 -150.99458 38 ft 7 kts 349°
2026-04-28 19:45 70.21232 -150.99504 41 ft 9 kts 338°
2026-04-28 19:46 70.21295 -150.99600 42 ft 9 kts 328°
2026-04-28 19:46 70.21321 -150.99760 44 ft 9 kts 275°
2026-04-28 19:46 70.21299 -150.99827 43 ft 2 kts 197°
2026-04-28 19:46 70.21289 -150.99835 43 ft 0 kts 197°